sim
Sign-in with your pilot id or email,
or register
Callsign
Passwort

Schedule Details

Flight Number: EWG224
Departure: Munich Airport (EDDM) at 14:00
Arrival: Port Louis Sir Seewoosagur Ramgoolam Airport (FIMP) at 01:15
Route: Eurowings Passenger Schedule. Enter filed route here before submitting Pirep.

Weather Information
Getting current METAR information for EDDM 191550Z 05003KT 020V080 CAVOK 21/12 Q1017 NOSIG
Getting current METAR information for FIMP 191600Z 11010KT 9999 FEW017 SCT050 22/16 Q1021

Schedule Frequency

Route Map